Weather at Paris-Orly Airport

Public forecast

Using degrees Celsius for public forecast. Weather courtesy of forecast.io.

Current aviation weather report (METAR) for Paris-Orly Airport

Retrieved 2020/11/28 01:30 UTC (0 seconds ago):

LFPO 280130Z 02003KT 4000 0400S R02/P2000U R25/P2000 R07/P2000 R24/P2000 R06/P2000 BCFG BR FEW005 05/04 Q1015 TEMPO 0800 FG VV///

Aviation forecast (TAF) for Paris-Orly Airport

Retrieved 2020-11-28 00:22 UTC (42 minutes ago):

TAF LFPO 272300Z 2800/2906 04004KT 3000 BR NSC TEMPO 2801/2809 0200 FG VV/// BECMG 2809/2811 8000 NSW BECMG 2811/2813 CAVOK TEMPO 2820/2906 3000 BR BKN003